Time;durP1;ratioP1;P1;durP2;ratioP2;P2;SDS_P1;SDS_P2;PMS_P1;PMS_P2;Temp;Humidity;BMP_temperature;BMP_pressure;BME280_temperature;BME280_humidity;BME280_pressure;Samples;Min_cycle;Max_cycle;Signal;HPM_P1;HPM_P2
2023/12/02 00:01:52;;;;;;;;;;;;;;;-2.87;100.00;101056.41;5115099;28;19920;-39
2023/12/02 00:04:17;;;;;;;;;;;;;;;-2.81;100.00;101051.72;5115032;28;19930;-40
2023/12/02 00:06:42;;;;;;;;;;;;;;;-2.80;100.00;101045.50;5114752;28;20030;-40
2023/12/02 00:09:08;;;;;;;;;;;;;;;-2.74;100.00;101048.63;5115515;28;20336;-40
2023/12/02 00:11:34;;;;;;;;;;;;;;;-2.70;100.00;101046.66;5114681;28;20102;-40
2023/12/02 00:13:59;;;;;;;;;;;;;;;-2.63;100.00;101041.84;5114913;28;19919;-39
2023/12/02 00:16:24;;;;;;;;;;;;;;;-2.59;100.00;101036.28;5114577;28;20397;-39
2023/12/02 00:18:49;;;;;;;;;;;;;;;-2.53;100.00;101032.44;5115369;28;20281;-39
2023/12/02 00:21:15;;;;;;;;;;;;;;;-2.48;100.00;101033.84;5116034;28;20430;-40
2023/12/02 00:23:40;;;;;;;;;;;;;;;-2.37;100.00;101027.09;5115133;28;19912;-39
2023/12/02 00:26:05;;;;;;;;;;;;;;;-2.30;100.00;101023.13;5115280;28;19961;-39
2023/12/02 00:28:30;;;;;;;;;;;;;;;-2.30;100.00;101023.13;5114315;28;19936;-40
2023/12/02 00:30:56;;;;;;;;;;;;;;;-2.23;100.00;101035.84;5115652;28;20374;-41
2023/12/02 00:33:21;;;;;;;;;;;;;;;-2.07;100.00;101041.00;5114957;28;20412;-40
2023/12/02 00:35:46;;;;;;;;;;;;;;;-2.04;100.00;101043.44;5122579;28;19962;-40
2023/12/02 00:38:12;;;;;;;;;;;;;;;-2.00;100.00;101042.34;5124123;28;19916;-39
2023/12/02 00:40:37;;;;;;;;;;;;;;;-1.92;100.00;101043.63;5123006;28;19931;-40
2023/12/02 00:43:02;;;;;;;;;;;;;;;-1.86;100.00;101053.81;5119284;28;19916;-40
2023/12/02 00:45:27;;;;;;;;;;;;;;;-1.82;100.00;101053.53;5117489;28;19916;-39
2023/12/02 00:47:53;;;;;;;;;;;;;;;-1.80;100.00;101059.53;5118363;28;20311;-39
2023/12/02 00:50:18;;;;;;;;;;;;;;;-1.78;100.00;101057.63;5119996;28;20318;-40
2023/12/02 00:52:43;;;;;;;;;;;;;;;-1.78;100.00;101048.88;5120819;28;19919;-40
2023/12/02 00:55:08;;;;;;;;;;;;;;;-1.74;100.00;101047.72;5115859;28;19961;-40
2023/12/02 00:57:34;;;;;;;;;;;;;;;-1.69;100.00;101040.38;5114991;28;19968;-41
2023/12/02 00:59:59;;;;;;;;;;;;;;;-1.69;100.00;101039.53;5113335;28;20006;-40
2023/12/02 01:02:24;;;;;;;;;;;;;;;-1.68;100.00;101035.97;5114368;28;20018;-40
2023/12/02 01:04:49;;;;;;;;;;;;;;;-1.72;100.00;101023.91;5114511;28;20063;-38
2023/12/02 01:07:15;;;;;;;;;;;;;;;-1.78;100.00;101022.50;5114406;28;19924;-39
2023/12/02 01:09:40;;;;;;;;;;;;;;;-1.80;100.00;101016.47;5114833;28;19927;-39
2023/12/02 01:12:05;;;;;;;;;;;;;;;-1.73;100.00;101022.22;5116088;28;19923;-40
2023/12/02 01:14:30;;;;;;;;;;;;;;;-1.73;100.00;101023.06;5116715;28;20503;-39
2023/12/02 01:16:56;;;;;;;;;;;;;;;-1.72;100.00;101019.47;5116789;28;19927;-39
2023/12/02 01:19:21;;;;;;;;;;;;;;;-1.68;100.00;101020.97;5117742;28;20250;-39
2023/12/02 01:21:46;;;;;;;;;;;;;;;-1.66;100.00;101019.09;5119011;28;20347;-40
2023/12/02 01:24:11;;;;;;;;;;;;;;;-1.63;100.00;101029.44;5119063;28;19987;-40
2023/12/02 01:26:37;;;;;;;;;;;;;;;-1.60;100.00;101021.31;5117513;28;19919;-37
2023/12/02 01:29:02;;;;;;;;;;;;;;;-1.63;100.00;101029.44;5115643;28;19923;-38
2023/12/02 01:31:28;;;;;;;;;;;;;;;-1.61;100.00;101031.97;5117511;28;19919;-38
2023/12/02 01:33:53;;;;;;;;;;;;;;;-1.59;100.00;101030.91;5120381;28;19916;-37
2023/12/02 01:36:18;;;;;;;;;;;;;;;-1.57;100.00;101030.84;5113585;28;19920;-39
2023/12/02 01:38:43;;;;;;;;;;;;;;;-1.47;100.00;101033.72;5114472;28;19923;-39
2023/12/02 01:41:09;;;;;;;;;;;;;;;-1.46;100.00;101040.69;5118272;28;19916;-39
2023/12/02 01:43:34;;;;;;;;;;;;;;;-1.52;100.00;101034.03;5118453;28;19930;-37
2023/12/02 01:45:59;;;;;;;;;;;;;;;-1.58;100.00;101037.91;5118325;28;19961;-39
2023/12/02 01:48:26;;;;;;;;;;;;;;;-1.64;100.00;101030.38;5117814;28;19984;-39
2023/12/02 01:50:51;;;;;;;;;;;;;;;-1.80;100.00;101025.22;5117863;28;20527;-40
2023/12/02 01:53:16;;;;;;;;;;;;;;;-1.82;100.00;101015.72;5118541;28;19959;-40
2023/12/02 01:55:42;;;;;;;;;;;;;;;-1.85;100.00;101015.91;5118646;28;19926;-39
2023/12/02 01:58:08;;;;;;;;;;;;;;;-1.80;100.00;101011.19;5120157;28;19942;-40
2023/12/02 02:00:33;;;;;;;;;;;;;;;-1.79;100.00;101018.16;5124177;28;20334;-39
2023/12/02 02:02:59;;;;;;;;;;;;;;;-1.73;100.00;101015.13;5121342;28;19916;-40
2023/12/02 02:05:24;;;;;;;;;;;;;;;-1.74;100.00;101004.66;5121344;28;20366;-40
2023/12/02 02:07:49;;;;;;;;;;;;;;;-1.77;100.00;101009.19;5120353;28;20915;-40
2023/12/02 02:10:14;;;;;;;;;;;;;;;-1.74;100.00;101010.78;5118494;28;20349;-39
2023/12/02 02:12:40;;;;;;;;;;;;;;;-1.75;100.00;101030.22;5118749;28;20367;-40
2023/12/02 02:15:05;;;;;;;;;;;;;;;-1.71;100.00;101028.22;5120076;28;19920;-39
2023/12/02 02:17:30;;;;;;;;;;;;;;;-1.65;100.00;101026.03;5123095;28;19920;-39
2023/12/02 02:19:55;;;;;;;;;;;;;;;-1.59;100.00;101032.72;5123602;28;20025;-39
2023/12/02 02:22:21;;;;;;;;;;;;;;;-1.50;100.00;101033.91;5122629;28;19920;-39
2023/12/02 02:24:46;;;;;;;;;;;;;;;-1.51;100.00;101026.94;5125162;28;20410;-39
2023/12/02 02:27:11;;;;;;;;;;;;;;;-1.55;100.00;101016.59;5124782;28;20018;-40
2023/12/02 02:29:36;;;;;;;;;;;;;;;-1.59;100.00;101014.25;5124584;28;19965;-40
2023/12/02 02:32:02;;;;;;;;;;;;;;;-1.65;100.00;101018.13;5123360;28;19919;-42
2023/12/02 02:34:27;;;;;;;;;;;;;;;-1.65;100.00;101020.75;5121296;28;19961;-39
2023/12/02 02:36:53;;;;;;;;;;;;;;;-1.67;100.00;101027.94;5118828;28;19923;-40
2023/12/02 02:39:18;;;;;;;;;;;;;;;-1.73;100.00;101027.50;5121831;28;19951;-40
2023/12/02 02:41:44;;;;;;;;;;;;;;;-1.79;100.00;101029.56;5120522;28;19964;-41
2023/12/02 02:44:09;;;;;;;;;;;;;;;-1.84;100.00;101025.53;5119772;28;20007;-39
2023/12/02 02:46:34;;;;;;;;;;;;;;;-1.89;100.00;101033.75;5118547;28;19920;-39
2023/12/02 02:48:59;;;;;;;;;;;;;;;-1.96;100.00;101036.84;5118286;28;19930;-40
2023/12/02 02:51:25;;;;;;;;;;;;;;;-2.02;100.00;101031.03;5117013;28;19955;-40
2023/12/02 02:53:50;;;;;;;;;;;;;;;-2.04;100.00;101035.53;5118387;28;19924;-40
2023/12/02 02:56:15;;;;;;;;;;;;;;;-2.08;100.00;101039.31;5119974;28;19929;-40
2023/12/02 02:58:40;;;;;;;;;;;;;;;-2.13;100.00;101041.41;5120251;28;19916;-39
2023/12/02 03:01:06;;;;;;;;;;;;;;;-2.20;100.00;101042.72;5120010;28;19927;-40
2023/12/02 03:03:31;;;;;;;;;;;;;;;-2.32;100.00;101041.66;5121806;28;20373;-40
2023/12/02 03:05:56;;;;;;;;;;;;;;;-2.31;100.00;101037.28;5122634;28;19935;-40
2023/12/02 03:08:21;;;;;;;;;;;;;;;-2.34;100.00;101040.94;5123817;28;20014;-41
2023/12/02 03:10:47;;;;;;;;;;;;;;;-2.33;100.00;101040.00;5120361;28;19923;-38
2023/12/02 03:13:12;;;;;;;;;;;;;;;-2.31;100.00;101043.38;5116860;28;20005;-39
2023/12/02 03:15:38;;;;;;;;;;;;;;;-2.27;100.00;101049.31;5117281;28;19976;-38
2023/12/02 03:18:03;;;;;;;;;;;;;;;-2.19;100.00;101046.19;5116547;28;19920;-40
2023/12/02 03:20:29;;;;;;;;;;;;;;;-2.18;100.00;101046.13;5117144;28;19920;-39
2023/12/02 03:22:54;;;;;;;;;;;;;;;-2.24;100.00;101039.44;5116778;28;20011;-39
2023/12/02 03:25:19;;;;;;;;;;;;;;;-2.25;100.00;101039.50;5117856;28;19915;-41
2023/12/02 03:27:44;;;;;;;;;;;;;;;-2.25;100.00;101047.44;5118689;28;19916;-40
2023/12/02 03:30:10;;;;;;;;;;;;;;;-2.24;100.00;101033.28;5119149;28;19941;-40
2023/12/02 03:32:38;;;;;;;;;;;;;;;-2.24;100.00;101033.28;5116411;28;20006;-39
2023/12/02 03:35:03;;;;;;;;;;;;;;;-2.22;100.00;101036.69;5116392;28;19920;-41
2023/12/02 03:37:29;;;;;;;;;;;;;;;-2.23;100.00;101040.28;5115527;28;19930;-38
2023/12/02 03:39:54;;;;;;;;;;;;;;;-2.22;100.00;101047.22;5115578;28;19919;-39
2023/12/02 03:42:19;;;;;;;;;;;;;;;-2.32;100.00;101046.94;5116305;28;19942;-40
2023/12/02 03:44:45;;;;;;;;;;;;;;;-2.34;100.00;101040.06;5115762;28;20002;-40
2023/12/02 03:47:10;;;;;;;;;;;;;;;-2.37;100.00;101038.50;5115850;28;20003;-40
2023/12/02 03:49:35;;;;;;;;;;;;;;;-2.38;100.00;101033.31;5115478;28;19962;-38
2023/12/02 03:52:00;;;;;;;;;;;;;;;-2.42;100.00;101040.56;5115336;28;19916;-39
2023/12/02 03:54:26;;;;;;;;;;;;;;;-2.44;100.00;101038.00;5115473;28;19938;-39
2023/12/02 03:56:51;;;;;;;;;;;;;;;-2.46;100.00;101045.16;5115324;28;19915;-40
2023/12/02 03:59:17;;;;;;;;;;;;;;;-2.46;100.00;101039.88;5115313;28;19916;-39
2023/12/02 04:01:42;;;;;;;;;;;;;;;-2.50;100.00;101038.41;5115002;28;19926;-40
2023/12/02 04:04:08;;;;;;;;;;;;;;;-2.50;100.00;101037.53;5115166;28;19960;-40
2023/12/02 04:06:33;;;;;;;;;;;;;;;-2.51;100.00;101044.59;5114863;28;19951;-39
2023/12/02 04:08:59;;;;;;;;;;;;;;;-2.51;100.00;101051.66;5113503;28;20562;-38
2023/12/02 04:11:24;;;;;;;;;;;;;;;-2.51;100.00;101046.38;5115206;28;19943;-39
2023/12/02 04:13:49;;;;;;;;;;;;;;;-2.48;100.00;101054.09;5115514;28;19916;-41
2023/12/02 04:16:15;;;;;;;;;;;;;;;-2.46;100.00;101065.41;5115515;28;19942;-38
2023/12/02 04:18:40;;;;;;;;;;;;;;;-2.38;100.00;101064.94;5115318;28;19915;-39
2023/12/02 04:21:06;;;;;;;;;;;;;;;-2.39;100.00;101060.63;5114508;28;19958;-40
2023/12/02 04:23:31;;;;;;;;;;;;;;;-2.35;100.00;101070.00;5111242;28;19939;-39
2023/12/02 04:25:56;;;;;;;;;;;;;;;-2.37;100.00;101070.13;5112348;28;19999;-40
2023/12/02 04:28:22;;;;;;;;;;;;;;;-2.34;100.00;101075.22;5113653;28;20034;-38
2023/12/02 04:30:47;;;;;;;;;;;;;;;-2.33;100.00;101070.78;5113692;28;19919;-38
2023/12/02 04:33:12;;;;;;;;;;;;;;;-2.29;100.00;101069.63;5113436;28;19924;-38
2023/12/02 04:35:37;;;;;;;;;;;;;;;-2.23;100.00;101072.75;5113052;28;19980;-40
2023/12/02 04:38:05;;;;;;;;;;;;;;;-2.22;100.00;101078.88;5115316;28;19952;-40
2023/12/02 04:40:34;;;;;;;;;;;;;;;-2.18;100.00;101074.28;5117240;28;19959;-40
2023/12/02 04:42:59;;;;;;;;;;;;;;;-2.17;100.00;101074.16;5117105;28;19919;-40
2023/12/02 04:45:24;;;;;;;;;;;;;;;-2.17;100.00;101081.22;5115773;28;19934;-39
2023/12/02 04:47:49;;;;;;;;;;;;;;;-2.20;100.00;101079.63;5112974;28;19916;-40
2023/12/02 04:50:14;;;;;;;;;;;;;;;-2.15;100.00;101080.19;5113509;28;20389;-40
2023/12/02 04:52:40;;;;;;;;;;;;;;;-2.10;100.00;101093.09;5113536;28;19924;-40
2023/12/02 04:55:06;;;;;;;;;;;;;;;-2.08;100.00;101084.16;5097179;28;19935;-38
2023/12/02 04:57:31;;;;;;;;;;;;;;;-2.07;100.00;101077.94;5093234;28;19981;-40
2023/12/02 04:59:56;;;;;;;;;;;;;;;-2.05;100.00;101081.31;5100198;28;20597;-40
2023/12/02 05:02:22;;;;;;;;;;;;;;;-2.04;100.00;101090.91;5114214;28;20316;-39
2023/12/02 05:04:47;;;;;;;;;;;;;;;-2.04;100.00;101090.91;5113536;28;19923;-39
2023/12/02 05:07:13;;;;;;;;;;;;;;;-1.99;100.00;101086.22;5114218;28;19970;-40
2023/12/02 05:09:38;;;;;;;;;;;;;;;-1.92;100.00;101091.09;5115995;28;19920;-40
2023/12/02 05:12:04;;;;;;;;;;;;;;;-1.91;100.00;101104.19;5115839;28;19919;-39
2023/12/02 05:14:29;;;;;;;;;;;;;;;-1.91;100.00;101104.19;5116495;28;20007;-39
2023/12/02 05:16:54;;;;;;;;;;;;;;;-1.91;100.00;101106.00;5116349;28;19920;-39
2023/12/02 05:19:19;;;;;;;;;;;;;;;-1.89;100.00;101104.13;5114449;28;20075;-40
2023/12/02 05:21:45;;;;;;;;;;;;;;;-1.86;100.00;101106.56;5112005;28;19967;-40
2023/12/02 05:24:10;;;;;;;;;;;;;;;-1.89;100.00;101106.75;5112475;28;19976;-39
2023/12/02 05:26:36;;;;;;;;;;;;;;;-1.89;100.00;101106.75;5112885;28;19923;-38
2023/12/02 05:29:01;;;;;;;;;;;;;;;-1.90;100.00;101111.16;5112684;28;20006;-40
2023/12/02 05:31:26;;;;;;;;;;;;;;;-1.94;100.00;101108.84;5107793;28;20347;-39
2023/12/02 05:33:52;;;;;;;;;;;;;;;-1.96;100.00;101115.97;5112923;28;19931;-39
2023/12/02 05:36:17;;;;;;;;;;;;;;;-1.98;100.00;101121.34;5100895;28;20010;-40
2023/12/02 05:38:42;;;;;;;;;;;;;;;-2.03;100.00;101119.00;5098269;28;19924;-39
2023/12/02 05:41:07;;;;;;;;;;;;;;;-2.06;100.00;101127.09;5107995;28;19962;-39
2023/12/02 05:43:33;;;;;;;;;;;;;;;-2.06;100.00;101123.59;5114545;28;19923;-39
2023/12/02 05:45:58;;;;;;;;;;;;;;;-2.11;100.00;101126.50;5113609;28;20322;-39
2023/12/02 05:48:24;;;;;;;;;;;;;;;-2.14;100.00;101125.88;5113596;28;20382;-39
2023/12/02 05:50:50;;;;;;;;;;;;;;;-2.14;100.00;101129.34;5114382;28;19924;-39
2023/12/02 05:53:15;;;;;;;;;;;;;;;-2.16;100.00;101138.28;5111655;28;19972;-39
2023/12/02 05:55:40;;;;;;;;;;;;;;;-2.19;100.00;101136.69;5111109;28;19930;-39
2023/12/02 05:58:05;;;;;;;;;;;;;;;-2.20;100.00;101132.38;5109883;28;19919;-38
2023/12/02 06:00:31;;;;;;;;;;;;;;;-2.22;100.00;101137.72;5112356;28;19924;-38
2023/12/02 06:02:56;;;;;;;;;;;;;;;-2.23;100.00;101138.66;5112257;28;19916;-40
2023/12/02 06:05:21;;;;;;;;;;;;;;;-2.24;100.00;101136.97;5113563;28;19920;-38
2023/12/02 06:07:46;;;;;;;;;;;;;;;-2.28;100.00;101142.53;5112979;28;19965;-40
2023/12/02 06:10:12;;;;;;;;;;;;;;;-2.30;100.00;101144.41;5112615;28;19920;-39
2023/12/02 06:12:37;;;;;;;;;;;;;;;-2.32;100.00;101148.91;5112141;28;19955;-40
2023/12/02 06:15:03;;;;;;;;;;;;;;;-2.30;100.00;101139.13;5119275;28;19916;-39
2023/12/02 06:17:28;;;;;;;;;;;;;;;-2.29;100.00;101146.09;5120158;28;20000;-40
2023/12/02 06:19:53;;;;;;;;;;;;;;;-2.32;100.00;101148.91;5120469;28;19926;-39
2023/12/02 06:22:18;;;;;;;;;;;;;;;-2.34;100.00;101151.66;5112273;28;20005;-39
2023/12/02 06:24:44;;;;;;;;;;;;;;;-2.36;100.00;101147.41;5103357;28;19924;-39
2023/12/02 06:27:09;;;;;;;;;;;;;;;-2.36;100.00;101156.16;5115753;28;19937;-40
2023/12/02 06:29:34;;;;;;;;;;;;;;;-2.35;100.00;101162.28;5117492;28;19931;-39
2023/12/02 06:31:59;;;;;;;;;;;;;;;-2.36;100.00;101158.78;5116095;28;19920;-39
2023/12/02 06:34:24;;;;;;;;;;;;;;;-2.35;100.00;101162.28;5116154;28;19930;-39
2023/12/02 06:36:50;;;;;;;;;;;;;;;-2.38;100.00;101162.47;5115794;28;19954;-39
2023/12/02 06:39:15;;;;;;;;;;;;;;;-2.41;100.00;101163.50;5115658;28;19967;-40
2023/12/02 06:41:44;;;;;;;;;;;;;;;-2.43;100.00;101155.66;5114959;28;20598;-39
2023/12/02 06:44:09;;;;;;;;;;;;;;;-2.43;100.00;101160.09;5114649;28;19920;-39
2023/12/02 06:46:34;;;;;;;;;;;;;;;-2.43;100.00;101171.47;5114524;28;19927;-40
2023/12/02 06:48:59;;;;;;;;;;;;;;;-2.45;100.00;101170.75;5115069;28;19955;-40
2023/12/02 06:51:28;;;;;;;;;;;;;;;-2.45;100.00;101172.50;5114989;28;20053;-40
2023/12/02 06:53:54;;;;;;;;;;;;;;;-2.47;100.00;101169.97;5114446;28;19927;-40
2023/12/02 06:56:21;;;;;;;;;;;;;;;-2.45;100.00;101188.31;5115145;28;19919;-39
2023/12/02 06:58:47;;;;;;;;;;;;;;;-2.45;100.00;101178.66;5115049;28;20419;-40
2023/12/02 07:01:21;;;;;;;;;;;;;;;-2.45;100.00;101178.66;5113720;28;20279;-39
2023/12/02 07:03:46;;;;;;;;;;;;;;;-2.49;100.00;101190.28;5104921;28;19973;-41
2023/12/02 07:06:11;;;;;;;;;;;;;;;-2.52;100.00;101187.84;5107479;28;19920;-39
2023/12/02 07:08:37;;;;;;;;;;;;;;;-2.53;100.00;101190.56;5114247;28;19924;-38
2023/12/02 07:11:03;;;;;;;;;;;;;;;-2.53;100.00;101190.56;5114672;28;20139;-39
2023/12/02 07:13:29;;;;;;;;;;;;;;;-2.52;100.00;101198.38;5114213;28;19964;-39
2023/12/02 07:15:54;;;;;;;;;;;;;;;-2.54;100.00;101205.53;5119410;28;20002;-39
2023/12/02 07:18:19;;;;;;;;;;;;;;;-2.52;100.00;101211.56;5117246;28;19959;-40
2023/12/02 07:20:44;;;;;;;;;;;;;;;-2.49;100.00;101214.00;5114172;28;19923;-41
2023/12/02 07:23:10;;;;;;;;;;;;;;;-2.46;100.00;101215.63;5113992;28;19915;-40
2023/12/02 07:25:35;;;;;;;;;;;;;;;-2.47;100.00;101212.16;5095333;28;19929;-39
2023/12/02 07:28:00;;;;;;;;;;;;;;;-2.42;100.00;101214.53;5114299;28;19931;-41
2023/12/02 07:30:25;;;;;;;;;;;;;;;-2.37;100.00;101223.00;5113888;28;19927;-40
2023/12/02 07:32:50;;;;;;;;;;;;;;;-2.34;100.00;101228.09;5113280;28;19918;-39
2023/12/02 07:35:16;;;;;;;;;;;;;;;-2.32;100.00;101220.09;5118508;28;19928;-39
2023/12/02 07:37:43;;;;;;;;;;;;;;;-2.31;100.00;101233.19;5118117;28;19923;-40
2023/12/02 07:40:09;;;;;;;;;;;;;;;-2.28;100.00;101234.78;5116172;28;19958;-40
2023/12/02 07:42:34;;;;;;;;;;;;;;;-2.25;100.00;101238.09;5114686;28;20436;-40
2023/12/02 07:44:59;;;;;;;;;;;;;;;-2.19;100.00;101242.16;5114981;28;19926;-40
2023/12/02 07:47:25;;;;;;;;;;;;;;;-2.17;100.00;101240.28;5114711;28;20010;-40
2023/12/02 07:49:50;;;;;;;;;;;;;;;-2.09;100.00;101248.59;5114423;28;19970;-39
2023/12/02 07:52:15;;;;;;;;;;;;;;;-2.08;100.00;101249.44;5114734;28;20325;-40
2023/12/02 07:54:40;;;;;;;;;;;;;;;-2.03;100.00;101245.59;5113333;28;20010;-39
2023/12/02 07:57:06;;;;;;;;;;;;;;;-1.98;100.00;101246.16;5112530;28;19920;-41
2023/12/02 07:59:31;;;;;;;;;;;;;;;-1.88;100.00;101250.91;5109436;28;19927;-39
2023/12/02 08:01:56;;;;;;;;;;;;;;;-1.81;100.00;101257.50;5116169;28;20018;-39
2023/12/02 08:04:21;;;;;;;;;;;;;;;-1.68;100.00;101255.81;5107410;28;19958;-39
2023/12/02 08:06:47;;;;;;;;;;;;;;;-1.59;100.00;101268.44;5102231;28;20091;-40
2023/12/02 08:09:14;;;;;;;;;;;;;;;-1.38;100.00;101261.00;5113511;28;20439;-39
2023/12/02 08:11:40;;;;;;;;;;;;;;;-1.15;100.00;101258.75;5113812;28;19931;-41
2023/12/02 08:14:06;;;;;;;;;;;;;;;-1.03;100.00;101263.22;5114618;28;19923;-40
2023/12/02 08:16:31;;;;;;;;;;;;;;;-0.50;100.00;101268.66;5114483;28;20300;-40
2023/12/02 08:18:56;;;;;;;;;;;;;;;-0.29;100.00;101267.28;5115838;28;19975;-41
2023/12/02 08:21:21;;;;;;;;;;;;;;;0.05;100.00;101275.59;5111765;28;20382;-40
2023/12/02 08:23:47;;;;;;;;;;;;;;;0.55;100.00;101265.97;5116729;27;20385;-40
2023/12/02 08:26:12;;;;;;;;;;;;;;;0.92;100.00;101268.69;5118741;28;19957;-40
2023/12/02 08:28:37;;;;;;;;;;;;;;;1.18;100.00;101260.69;5117562;28;19920;-40
2023/12/02 08:31:02;;;;;;;;;;;;;;;1.44;100.00;101256.97;5113282;28;19924;-39
2023/12/02 08:33:28;;;;;;;;;;;;;;;1.59;100.00;101254.16;5112255;28;19927;-39
2023/12/02 08:35:53;;;;;;;;;;;;;;;1.86;100.00;101254.75;5112801;28;19919;-40
2023/12/02 08:38:18;;;;;;;;;;;;;;;1.95;100.00;101259.38;5112684;28;20022;-39
2023/12/02 08:40:43;;;;;;;;;;;;;;;2.46;100.00;101262.63;5112693;28;19920;-38
2023/12/02 08:43:09;;;;;;;;;;;;;;;2.50;100.00;101256.06;5112702;28;19924;-40
2023/12/02 08:45:34;;;;;;;;;;;;;;;1.82;100.00;101255.06;5113791;28;19931;-40
2023/12/02 08:48:00;;;;;;;;;;;;;;;1.63;100.00;101258.25;5117011;28;20361;-40
2023/12/02 08:50:25;;;;;;;;;;;;;;;1.45;100.00;101269.28;5114407;28;19924;-40
2023/12/02 08:52:50;;;;;;;;;;;;;;;1.04;100.00;101269.63;5115399;28;20378;-40
2023/12/02 08:55:15;;;;;;;;;;;;;;;1.02;100.00;101263.59;5113890;28;19924;-39
2023/12/02 08:57:41;;;;;;;;;;;;;;;1.02;100.00;101269.72;5111988;28;19919;-40
2023/12/02 09:00:06;;;;;;;;;;;;;;;0.92;100.00;101281.94;5112173;28;19931;-39
2023/12/02 09:02:32;;;;;;;;;;;;;;;0.90;100.00;101273.28;5112273;28;19930;-40
2023/12/02 09:04:58;;;;;;;;;;;;;;;0.82;100.00;101275.63;5110388;28;19942;-40
2023/12/02 09:07:24;;;;;;;;;;;;;;;0.79;100.00;101286.41;5112448;28;19967;-39
2023/12/02 09:09:51;;;;;;;;;;;;;;;0.72;100.00;101287.81;5111307;28;21305;-40
2023/12/02 09:12:16;;;;;;;;;;;;;;;0.70;100.00;101285.25;5112062;28;19935;-40
2023/12/02 09:14:41;;;;;;;;;;;;;;;0.52;100.00;101283.91;5093360;28;19961;-40
2023/12/02 09:17:26;;;;;;;;;;;;;;;0.45;100.00;101288.78;5114568;28;20393;-40
2023/12/02 09:19:55;;;;;;;;;;;;;;;0.55;100.00;101295.09;5112530;28;19954;-41
2023/12/02 09:22:36;;;;;;;;;;;;;;;0.96;100.00;101303.78;5112250;28;20492;-39
2023/12/02 09:25:01;;;;;;;;;;;;;;;1.33;100.00;101307.31;5120641;28;19912;-40
2023/12/02 09:27:45;;;;;;;;;;;;;;;1.64;100.00;101305.91;5120158;28;19919;-40
2023/12/02 09:30:10;;;;;;;;;;;;;;;2.29;100.00;101303.75;5117525;28;19920;-39
2023/12/02 09:32:44;;;;;;;;;;;;;;;2.34;100.00;101310.41;5118718;28;19924;-40
2023/12/02 09:35:09;;;;;;;;;;;;;;;2.63;100.00;101299.34;5118451;28;20018;-40
2023/12/02 09:37:40;;;;;;;;;;;;;;;2.68;100.00;101302.47;5117895;28;19915;-40
2023/12/02 09:40:29;;;;;;;;;;;;;;;2.95;100.00;101304.81;5118027;28;19916;-40
2023/12/02 09:43:04;;;;;;;;;;;;;;;3.30;100.00;101304.63;5087685;28;19979;-41
2023/12/02 09:45:35;;;;;;;;;;;;;;;3.48;100.00;101306.78;5117367;28;19916;-39
2023/12/02 09:48:20;;;;;;;;;;;;;;;3.60;100.00;101303.13;5111549;28;19939;-40
2023/12/02 09:50:52;;;;;;;;;;;;;;;3.68;100.00;101305.16;5114090;28;19968;-39
2023/12/02 09:53:23;;;;;;;;;;;;;;;3.38;100.00;101305.84;5115962;28;20007;-39
2023/12/02 09:55:51;;;;;;;;;;;;;;;3.42;100.00;101302.81;5100937;28;20038;-39
2023/12/02 09:58:21;;;;;;;;;;;;;;;2.94;100.00;101300.44;5115662;28;19920;-40
2023/12/02 10:00:50;;;;;;;;;;;;;;;2.81;100.00;101303.22;5096296;28;19920;-39
2023/12/02 10:03:18;;;;;;;;;;;;;;;2.65;100.00;101313.34;5108118;27;19938;-39
2023/12/02 10:05:46;;;;;;;;;;;;;;;2.76;100.00;101317.84;5123025;27;19979;-38
2023/12/02 10:08:12;;;;;;;;;;;;;;;2.71;100.00;101322.66;5130027;27;19971;-39
2023/12/02 10:10:44;;;;;;;;;;;;;;;2.54;100.00;101321.31;5134438;27;19923;-39
2023/12/02 10:13:20;;;;;;;;;;;;;;;2.61;100.00;101319.88;5121660;28;19916;-39
2023/12/02 10:15:46;;;;;;;;;;;;;;;2.67;100.00;101318.56;5120170;28;19915;-39
2023/12/02 10:18:12;;;;;;;;;;;;;;;2.80;100.00;101314.81;5116319;28;19915;-40
2023/12/02 10:20:38;;;;;;;;;;;;;;;3.18;100.00;101320.72;5118320;28;19922;-40
2023/12/02 10:23:15;;;;;;;;;;;;;;;3.61;100.00;101312.81;5121231;28;20346;-39
2023/12/02 10:25:40;;;;;;;;;;;;;;;3.88;100.00;101314.19;5120364;28;20286;-40
2023/12/02 10:28:16;;;;;;;;;;;;;;;4.21;100.00;101321.16;5118679;28;19915;-39
2023/12/02 10:30:44;;;;;;;;;;;;;;;4.46;100.00;101319.94;5117238;28;19945;-40
2023/12/02 10:33:10;;;;;;;;;;;;;;;5.19;100.00;101320.72;5114488;28;19920;-40
2023/12/02 10:35:37;;;;;;;;;;;;;;;5.13;100.00;101307.91;5112687;28;20123;-39
2023/12/02 10:38:18;;;;;;;;;;;;;;;5.17;100.00;101319.16;5115820;27;19928;-41
2023/12/02 10:40:45;;;;;;;;;;;;;;;4.99;100.00;101318.97;5113621;28;19972;-42
2023/12/02 10:43:22;;;;;;;;;;;;;;;4.87;100.00;101307.53;5115188;27;19926;-40
2023/12/02 10:45:48;;;;;;;;;;;;;;;4.65;100.00;101310.38;5108399;28;19935;-40
2023/12/02 10:48:13;;;;;;;;;;;;;;;4.94;100.00;101316.69;5112550;28;20386;-39
2023/12/02 10:50:39;;;;;;;;;;;;;;;4.66;100.00;101309.38;5113288;28;19922;-40
2023/12/02 10:53:04;;;;;;;;;;;;;;;4.39;100.00;101306.28;5112900;28;19927;-40
2023/12/02 10:55:30;;;;;;;;;;;;;;;4.35;100.00;101304.84;5113570;28;19934;-40
2023/12/02 10:57:55;;;;;;;;;;;;;;;4.41;100.00;101303.50;5113826;28;20029;-40
2023/12/02 11:00:20;;;;;;;;;;;;;;;4.13;100.00;101299.63;5114188;28;20187;-39
2023/12/02 11:02:56;;;;;;;;;;;;;;;3.89;100.00;101300.72;5118396;28;20010;-40
2023/12/02 11:05:22;;;;;;;;;;;;;;;4.01;100.00;101298.03;5118594;28;19949;-40
2023/12/02 11:07:51;;;;;;;;;;;;;;;3.95;100.00;101300.22;5115044;28;20316;-40
2023/12/02 11:10:19;;;;;;;;;;;;;;;3.80;100.00;101308.63;5112943;28;20373;-40
2023/12/02 11:12:54;;;;;;;;;;;;;;;3.71;100.00;101307.56;5112207;28;20270;-40
2023/12/02 11:15:23;;;;;;;;;;;;;;;3.74;100.00;101302.84;5115100;28;19927;-39
2023/12/02 11:17:52;;;;;;;;;;;;;;;3.89;100.00;101310.53;5116355;28;19927;-38
2023/12/02 11:20:30;;;;;;;;;;;;;;;3.93;100.00;101302.16;5115755;28;19927;-40
2023/12/02 11:23:19;;;;;;;;;;;;;;;3.94;100.00;101303.84;5118736;28;19920;-39
2023/12/02 11:25:48;;;;;;;;;;;;;;;3.81;100.00;101310.31;5120344;28;20412;-41
2023/12/02 11:28:22;;;;;;;;;;;;;;;3.91;100.00;101305.94;5119755;27;19919;-41
2023/12/02 11:30:47;;;;;;;;;;;;;;;4.11;100.00;101306.94;5114873;28;19981;-40
2023/12/02 11:33:19;;;;;;;;;;;;;;;4.66;100.00;101309.38;5114704;28;19924;-40
2023/12/02 11:35:50;;;;;;;;;;;;;;;5.24;100.00;101315.00;5113740;28;19924;-39
2023/12/02 11:38:19;;;;;;;;;;;;;;;5.62;100.00;101313.38;5112417;28;19928;-39
2023/12/02 11:40:50;;;;;;;;;;;;;;;5.73;100.00;101313.25;5113878;28;19924;-40
2023/12/02 11:43:18;;;;;;;;;;;;;;;5.99;100.00;101312.75;5114122;28;20339;-40
2023/12/02 11:45:45;;;;;;;;;;;;;;;5.67;100.00;101311.13;5114063;28;19923;-40
2023/12/02 11:48:12;;;;;;;;;;;;;;;5.48;100.00;101317.28;5111931;28;19916;-40
2023/12/02 11:50:45;;;;;;;;;;;;;;;5.71;100.00;101318.75;5113442;28;20396;-41
2023/12/02 11:53:17;;;;;;;;;;;;;;;5.15;100.00;101315.78;5112955;28;19935;-39
2023/12/02 11:55:43;;;;;;;;;;;;;;;4.55;100.00;101324.47;5108368;28;20068;-39
2023/12/02 11:58:17;;;;;;;;;;;;;;;4.07;100.00;101321.47;5113784;28;19923;-39
2023/12/02 12:00:51;;;;;;;;;;;;;;;4.00;100.00;101317.63;5110478;28;19940;-40
2023/12/02 12:03:34;;;;;;;;;;;;;;;3.78;100.00;101321.22;5113328;28;19920;-39
2023/12/02 12:06:18;;;;;;;;;;;;;;;3.34;100.00;101331.00;5113843;28;19919;-40
2023/12/02 12:09:13;;;;;;;;;;;;;;;3.01;100.00;101335.38;5113743;28;19927;-40
2023/12/02 12:11:38;;;;;;;;;;;;;;;2.88;100.00;101334.66;5060195;28;20431;-39
2023/12/02 12:14:04;;;;;;;;;;;;;;;2.77;100.00;101339.00;5115474;28;19915;-39
2023/12/02 12:16:29;;;;;;;;;;;;;;;2.78;100.00;101335.34;5119691;28;19943;-40
2023/12/02 12:18:55;;;;;;;;;;;;;;;2.80;100.00;101344.06;5118113;28;19920;-39
2023/12/02 12:21:20;;;;;;;;;;;;;;;2.95;100.00;101351.78;5116318;28;20293;-38
2023/12/02 12:23:46;;;;;;;;;;;;;;;2.94;100.00;101342.13;5113474;28;20023;-40
2023/12/02 12:26:11;;;;;;;;;;;;;;;2.85;100.00;101341.06;5112165;28;20368;-39
2023/12/02 12:28:39;;;;;;;;;;;;;;;2.84;100.00;101337.56;5113207;28;19920;-39